Time;durP1;ratioP1;P1;durP2;ratioP2;P2;SDS_P1;SDS_P2;PMS_P1;PMS_P2;Temp;Humidity;BMP_temperature;BMP_pressure;BME280_temperature;BME280_humidity;BME280_pressure;Samples;Min_cycle;Max_cycle;Signal;HPM_P1;HPM_P2
2022/12/05 15:11:48;;;;;;;39.60;23.30;;;;;;;0.74;87.59;100595.16;96932;1330;637132;-69
2022/12/05 15:14:21;;;;;;;44.70;23.70;;;;;;;0.75;87.67;100600.66;99395;1302;137552;-66
2022/12/05 15:16:54;;;;;;;45.00;23.70;;;;;;;0.76;87.67;100602.39;99359;1302;107846;-69
2022/12/05 15:19:29;;;;;;;44.10;23.60;;;;;;;0.77;87.57;100600.34;99161;1300;137469;-67
2022/12/05 15:22:01;;;;;;;42.50;23.40;;;;;;;0.81;87.71;100602.61;99312;1301;109015;-68
2022/12/05 15:24:36;;;;;;;41.20;22.10;;;;;;;0.87;87.64;100606.79;99292;1301;171447;-70
2022/12/05 15:27:06;;;;;;;47.90;24.80;;;;;;;0.90;87.56;100598.80;99494;1301;95042;-68
2022/12/05 15:29:35;;;;;;;40.20;23.10;;;;;;;0.89;87.18;100597.41;99606;1301;108390;-69
2022/12/05 15:32:05;;;;;;;44.00;23.50;;;;;;;0.87;87.22;100592.92;99887;1291;137660;-70
2022/12/05 15:34:38;;;;;;;43.80;23.10;;;;;;;0.83;87.11;100596.47;100029;1290;106572;-69
2022/12/05 15:37:14;;;;;;;42.50;23.70;;;;;;;0.82;87.17;100592.69;99848;1292;137939;-69
2022/12/05 15:39:56;;;;;;;40.20;23.10;;;;;;;0.81;87.17;100591.32;99728;1291;96916;-68
2022/12/05 15:42:26;;;;;;;49.50;25.00;;;;;;;0.82;87.29;100599.71;100127;1292;106682;-69
2022/12/05 15:45:12;;;;;;;42.10;23.30;;;;;;;0.81;87.30;100594.41;99642;1291;137609;-68
2022/12/05 15:47:40;;;;;;;42.60;22.50;;;;;;;0.80;87.28;100584.80;100082;1290;107857;-68
2022/12/05 15:50:14;;;;;;;42.00;24.40;;;;;;;0.81;87.34;100586.52;99641;1283;137874;-67
2022/12/05 15:52:47;;;;;;;44.50;24.20;;;;;;;0.82;87.49;100581.91;100063;1282;95616;-67
2022/12/05 15:55:19;;;;;;;42.70;23.70;;;;;;;0.79;87.42;100572.98;99896;1284;137963;-67
2022/12/05 15:57:52;;;;;;;45.20;23.60;;;;;;;0.78;87.47;100580.67;100117;1291;95019;-68
2022/12/05 16:00:24;;;;;;;45.60;24.10;;;;;;;0.78;87.58;100583.23;100106;1285;108004;-68
2022/12/05 16:02:58;;;;;;;47.00;25.60;;;;;;;0.78;87.65;100583.23;99830;1293;137670;-70
2022/12/05 16:05:33;;;;;;;44.50;23.90;;;;;;;0.79;87.84;100581.70;100009;1292;95701;-67
2022/12/05 16:08:04;;;;;;;43.30;24.20;;;;;;;0.79;87.64;100572.98;100435;1293;137735;-69
2022/12/05 16:10:32;;;;;;;51.10;26.10;;;;;;;0.83;87.72;100570.45;99936;1287;95009;-67
2022/12/05 16:13:05;;;;;;;45.00;23.90;;;;;;;0.84;87.72;100579.20;99865;1298;137680;-67
2022/12/05 16:15:33;;;;;;;46.90;24.70;;;;;;;0.82;87.73;100572.84;99874;1288;107757;-67
2022/12/05 16:18:04;;;;;;;46.50;23.80;;;;;;;0.83;87.64;100576.45;101369;1286;93308;-67
2022/12/05 16:20:35;;;;;;;48.20;23.60;;;;;;;0.83;87.66;100569.94;101068;1280;138791;-69
2022/12/05 16:23:05;;;;;;;46.90;24.50;;;;;;;0.85;87.70;100569.27;100953;1291;93647;-69
2022/12/05 16:25:35;;;;;;;51.20;24.40;;;;;;;0.86;87.80;100569.12;100620;1292;139452;-68
2022/12/05 16:28:15;;;;;;;43.40;23.80;;;;;;;0.87;87.76;100569.98;99568;1285;1002754;-69
2022/12/05 16:30:52;;;;;;;57.60;26.50;;;;;;;0.86;87.73;100566.38;99519;1290;138146;-69
2022/12/05 16:33:18;;;;;;;;;;;;;;;0.86;87.72;100563.30;99858;1286;108890;-69
2022/12/05 16:35:47;;;;;;;50.50;26.00;;;;;;;0.87;87.71;100566.39;100342;1287;94362;-68
2022/12/05 16:38:18;;;;;;;47.90;25.00;;;;;;;0.89;87.72;100563.00;99632;1294;138963;-69
2022/12/05 16:40:55;;;;;;;46.00;24.90;;;;;;;0.91;87.73;100559.09;99564;1292;107444;-68
2022/12/05 16:43:29;;;;;;;49.60;25.60;;;;;;;0.90;87.70;100559.10;99794;1291;139936;-68
2022/12/05 16:45:59;;;;;;;53.00;26.80;;;;;;;0.89;87.64;100556.16;99746;1284;107359;-68
2022/12/05 16:48:28;;;;;;;50.20;25.10;;;;;;;0.90;87.60;100547.63;100087;1292;94995;-68
2022/12/05 16:51:20;;;;;;;46.80;25.70;;;;;;;0.90;87.49;100547.29;100918;1285;138226;-68
2022/12/05 16:53:49;;;;;;;49.80;26.40;;;;;;;0.89;87.46;100550.15;100624;1286;106378;-67
2022/12/05 16:56:19;;;;;;;50.60;25.90;;;;;;;0.90;87.42;100548.12;99946;1289;137865;-67
2022/12/05 16:58:48;;;;;;;48.30;25.30;;;;;;;0.89;87.31;100541.92;99970;1288;108968;-68
2022/12/05 17:01:19;;;;;;;45.10;24.50;;;;;;;0.89;87.36;100545.70;100433;1291;137706;-71
2022/12/05 17:03:47;;;;;;;48.90;24.50;;;;;;;0.87;87.23;100551.15;99660;1290;109049;-67
2022/12/05 17:06:15;;;;;;;55.10;26.00;;;;;;;0.88;87.24;100548.23;101124;1292;108860;-68
2022/12/05 17:08:42;;;;;;;42.50;24.40;;;;;;;0.89;87.35;100546.55;101282;1292;138626;-68
2022/12/05 17:11:14;;;;;;;42.30;23.60;;;;;;;0.90;87.27;100547.44;101342;1295;106631;-68
2022/12/05 17:13:43;;;;;;;48.60;26.00;;;;;;;0.92;87.12;100548.66;101270;1300;138332;-68
2022/12/05 17:16:11;;;;;;;47.80;24.50;;;;;;;0.93;87.06;100544.23;101378;1300;108502;-69
2022/12/05 17:18:39;;;;;;;43.50;24.70;;;;;;;0.95;86.91;100541.67;101330;1290;107584;-69
2022/12/05 17:21:06;;;;;;;45.30;24.60;;;;;;;0.96;87.01;100539.11;101290;1291;93202;-69
2022/12/05 17:23:34;;;;;;;40.60;23.20;;;;;;;0.97;86.86;100540.32;100177;1294;106678;-68
2022/12/05 17:26:02;;;;;;;40.50;24.20;;;;;;;0.99;86.78;100540.35;99962;1291;137735;-68
2022/12/05 17:28:29;;;;;;;47.40;25.80;;;;;;;1.02;86.75;100540.89;100065;1291;108692;-67
2022/12/05 17:30:57;;;;;;;42.80;25.60;;;;;;;1.02;86.61;100540.71;99866;1294;138123;-68
2022/12/05 17:33:25;;;;;;;42.20;24.00;;;;;;;1.03;86.57;100536.44;100073;1292;95079;-68
2022/12/05 17:35:52;;;;;;;42.60;24.60;;;;;;;1.02;86.50;100537.46;100268;1295;106978;-68
2022/12/05 17:38:20;;;;;;;50.70;26.50;;;;;;;1.01;86.42;100536.08;99686;1291;138192;-67
2022/12/05 17:40:48;;;;;;;43.70;23.90;;;;;;;1.01;86.49;100535.74;99823;1291;107513;-68
2022/12/05 17:43:16;;;;;;;46.40;25.20;;;;;;;1.00;86.51;100533.84;99325;1292;1002389;-68
2022/12/05 17:45:51;;;;;;;43.40;25.60;;;;;;;1.01;86.51;100535.23;100048;1291;95475;-67
2022/12/05 17:48:19;;;;;;;43.50;25.60;;;;;;;1.02;86.53;100534.38;100328;1292;106525;-68
2022/12/05 17:50:48;;;;;;;42.40;24.90;;;;;;;1.03;86.52;100532.34;99928;1287;137814;-67
2022/12/05 17:53:17;;;;;;;40.80;24.50;;;;;;;1.05;86.48;100527.91;99931;1291;108312;-68
2022/12/05 17:55:47;;;;;;;43.20;25.00;;;;;;;1.08;86.54;100527.95;99723;1293;137997;-68
2022/12/05 17:58:15;;;;;;;39.60;24.90;;;;;;;1.11;86.44;100528.84;100574;1288;95238;-68
2022/12/05 18:00:43;;;;;;;39.70;25.10;;;;;;;1.11;86.25;100530.39;100015;1285;107222;-69
2022/12/05 18:03:13;;;;;;;42.90;25.60;;;;;;;1.10;86.10;100524.55;100077;1292;95589;-70
2022/12/05 18:05:41;;;;;;;39.10;24.20;;;;;;;1.10;86.20;100524.55;100057;1288;108540;-70
2022/12/05 18:08:09;;;;;;;40.90;24.90;;;;;;;1.11;86.24;100521.64;99961;1291;139570;-70
2022/12/05 18:10:37;;;;;;;41.90;23.70;;;;;;;1.11;86.10;100526.97;100144;1285;95084;-68
2022/12/05 18:13:04;;;;;;;42.00;25.30;;;;;;;1.12;86.21;100528.52;99589;1291;138267;-68
2022/12/05 18:15:32;;;;;;;42.70;25.10;;;;;;;1.15;86.42;100530.42;99568;1285;94995;-68
2022/12/05 18:18:07;;;;;;;39.10;24.90;;;;;;;1.17;86.23;100534.38;100006;1292;108525;-72
2022/12/05 18:20:35;;;;;;;40.50;24.60;;;;;;;1.18;86.08;100537.13;99929;1284;138289;-69
2022/12/05 18:23:03;;;;;;;39.00;24.60;;;;;;;1.18;86.02;100536.10;100039;1285;95483;-72
2022/12/05 18:25:31;;;;;;;45.70;25.80;;;;;;;1.20;86.11;100538.52;99934;1285;137928;-68
2022/12/05 18:27:58;;;;;;;42.90;25.70;;;;;;;1.20;85.87;100535.60;100064;1291;95238;-69
2022/12/05 18:30:25;;;;;;;40.50;25.40;;;;;;;1.22;86.08;100529.29;99834;1288;109207;-72
2022/12/05 18:32:53;;;;;;;42.50;25.30;;;;;;;1.24;86.03;100529.81;99740;1292;137902;-69
2022/12/05 18:35:38;;;;;;;42.30;26.20;;;;;;;1.26;85.98;100525.04;100085;1285;95421;-69
2022/12/05 18:38:06;;;;;;;42.10;25.40;;;;;;;1.27;85.89;100523.19;99891;1283;139598;-69
2022/12/05 18:40:34;;;;;;;44.60;26.40;;;;;;;1.27;85.97;100517.54;100057;1285;95126;-70
2022/12/05 18:43:02;;;;;;;42.80;24.80;;;;;;;1.28;85.71;100514.29;99920;1291;137996;-72
2022/12/05 18:45:29;;;;;;;41.60;25.50;;;;;;;1.26;85.61;100514.95;99940;1291;109286;-71
2022/12/05 18:47:56;;;;;;;43.80;26.30;;;;;;;1.26;85.71;100505.85;99923;1288;95151;-70
2022/12/05 18:50:42;;;;;;;46.50;25.50;;;;;;;1.26;85.85;100512.04;99933;1285;137732;-70
2022/12/05 18:53:09;;;;;;;39.50;25.50;;;;;;;1.26;85.79;100519.75;99992;1283;95248;-72
2022/12/05 18:55:37;;;;;;;42.80;25.60;;;;;;;1.26;85.67;100520.06;99695;1291;137544;-71
2022/12/05 18:58:25;;;;;;;39.70;27.30;;;;;;;1.26;85.80;100524.35;99979;1292;108616;-71
2022/12/05 19:00:53;;;;;;;42.50;25.80;;;;;;;1.24;85.53;100528.44;99887;1285;138001;-70
2022/12/05 19:03:20;;;;;;;42.40;26.80;;;;;;;1.24;85.77;100521.08;100278;1292;107996;-71
2022/12/05 19:05:47;;;;;;;45.80;28.00;;;;;;;1.26;85.70;100523.83;99810;1285;95123;-70
2022/12/05 19:08:15;;;;;;;38.90;26.10;;;;;;;1.26;85.69;100522.64;99923;1288;137546;-70
2022/12/05 19:10:43;;;;;;;43.20;27.40;;;;;;;1.26;85.57;100519.73;99958;1283;107776;-69
2022/12/05 19:13:10;;;;;;;40.70;25.40;;;;;;;1.25;85.60;100522.45;99900;1291;138291;-69
2022/12/05 19:15:38;;;;;;;43.60;27.20;;;;;;;1.24;85.48;100522.62;100111;1291;107903;-69
2022/12/05 19:18:06;;;;;;;41.80;26.50;;;;;;;1.22;85.46;100521.92;100038;1285;95130;-69
2022/12/05 19:20:33;;;;;;;40.40;25.90;;;;;;;1.21;85.31;100520.20;100002;1292;137852;-69
2022/12/05 19:23:01;;;;;;;40.40;27.20;;;;;;;1.21;85.56;100524.65;99895;1283;108490;-69
2022/12/05 19:25:30;;;;;;;42.90;27.40;;;;;;;1.23;85.66;100517.98;99987;1292;138053;-70
2022/12/05 19:27:57;;;;;;;39.00;26.60;;;;;;;1.24;85.55;100520.40;100276;1298;108132;-69
2022/12/05 19:30:24;;;;;;;43.70;27.00;;;;;;;1.24;85.66;100522.45;100528;1285;96462;-68
2022/12/05 19:32:52;;;;;;;39.80;26.00;;;;;;;1.23;85.51;100520.04;99972;1285;137947;-67
2022/12/05 19:35:20;;;;;;;42.80;27.30;;;;;;;1.20;85.57;100521.21;100176;1291;107189;-69
2022/12/05 19:37:47;;;;;;;42.00;26.20;;;;;;;1.19;85.57;100529.95;100795;1293;138907;-69
2022/12/05 19:40:15;;;;;;;38.20;25.60;;;;;;;1.19;85.51;100525.48;99814;1278;107046;-69
2022/12/05 19:42:42;;;;;;;40.30;26.40;;;;;;;1.19;85.68;100524.64;100147;1283;97009;-68
2022/12/05 19:45:11;;;;;;;40.90;25.80;;;;;;;1.21;85.78;100521.73;100327;1292;112119;-70
2022/12/05 19:47:44;;;;;;;41.70;27.00;;;;;;;1.24;85.64;100517.30;100001;1291;107225;-68
2022/12/05 19:50:12;;;;;;;41.20;26.00;;;;;;;1.26;85.63;100515.95;99969;1285;138174;-68
2022/12/05 19:52:39;;;;;;;41.00;25.90;;;;;;;1.25;85.48;100514.40;100185;1284;107898;-68
2022/12/05 19:55:08;;;;;;;38.90;25.30;;;;;;;1.24;85.46;100511.82;99918;1291;138885;-69
2022/12/05 19:57:36;;;;;;;42.90;25.70;;;;;;;1.24;85.52;100501.20;100375;1289;109717;-67
2022/12/05 20:00:05;;;;;;;38.20;26.50;;;;;;;1.24;85.57;100502.73;99962;1292;108077;-68
2022/12/05 20:02:38;;;;;;;40.70;26.60;;;;;;;1.24;85.58;100501.55;100299;1275;138039;-68
2022/12/05 20:05:07;;;;;;;40.60;25.60;;;;;;;1.22;85.56;100503.25;99999;1288;107423;-68
2022/12/05 20:07:35;;;;;;;40.40;26.30;;;;;;;1.23;85.55;100504.62;100208;1285;138050;-68
2022/12/05 20:10:02;;;;;;;39.40;26.20;;;;;;;1.23;85.56;100497.60;100759;1286;109901;-67
2022/12/05 20:12:29;;;;;;;38.80;26.20;;;;;;;1.24;85.45;100495.89;100226;1290;108356;-67
2022/12/05 20:14:57;;;;;;;41.30;25.70;;;;;;;1.25;85.64;100501.39;101098;1292;140299;-68
2022/12/05 20:17:24;;;;;;;38.10;25.60;;;;;;;1.26;85.46;100488.39;101000;1289;107860;-70
2022/12/05 20:19:52;;;;;;;43.20;26.20;;;;;;;1.27;85.57;100480.20;101050;1293;138258;-69
2022/12/05 20:22:19;;;;;;;43.70;26.50;;;;;;;1.30;85.66;100481.77;100055;1284;109808;-69
2022/12/05 20:24:46;;;;;;;43.90;27.40;;;;;;;1.30;85.50;100488.27;99825;1285;138561;-67
2022/12/05 20:27:14;;;;;;;38.50;25.30;;;;;;;1.31;85.45;100475.08;99764;1292;96829;-69
2022/12/05 20:29:41;;;;;;;44.60;27.40;;;;;;;1.33;85.38;100480.41;99692;1283;107793;-69
2022/12/05 20:32:08;;;;;;;43.80;27.80;;;;;;;1.33;85.45;100479.38;99406;1283;137449;-69
2022/12/05 20:34:36;;;;;;;46.80;28.30;;;;;;;1.29;85.27;100471.30;101157;1288;112305;-70
2022/12/05 20:37:03;;;;;;;45.60;28.70;;;;;;;1.27;85.59;100471.63;99862;1282;138969;-69
2022/12/05 20:39:31;;;;;;;45.30;27.90;;;;;;;1.25;85.41;100478.26;99975;1282;96555;-69
2022/12/05 20:41:59;;;;;;;39.20;26.50;;;;;;;1.24;85.54;100475.67;101288;1288;108960;-70
2022/12/05 20:44:26;;;;;;;43.50;27.50;;;;;;;1.25;85.51;100477.58;100188;1279;138155;-68
2022/12/05 20:46:54;;;;;;;41.10;25.90;;;;;;;1.27;85.72;100472.81;100204;1279;110446;-70
2022/12/05 20:49:21;;;;;;;44.60;28.10;;;;;;;1.28;85.66;100470.27;99962;1285;141497;-67
2022/12/05 20:51:49;;;;;;;43.90;27.70;;;;;;;1.29;85.63;100478.84;99855;1275;97162;-68
2022/12/05 20:54:17;;;;;;;41.20;26.50;;;;;;;1.28;85.71;100467.19;99970;1288;109250;-68
2022/12/05 20:56:44;;;;;;;43.10;27.40;;;;;;;1.30;85.60;100469.60;100169;1288;138103;-68
2022/12/05 20:59:13;;;;;;;45.30;27.80;;;;;;;1.32;85.78;100471.15;100153;1287;109933;-67
2022/12/05 21:01:41;;;;;;;50.70;28.20;;;;;;;1.33;85.63;100479.04;100714;1287;139507;-67
2022/12/05 21:04:11;;;;;;;46.20;28.60;;;;;;;1.33;85.51;100473.55;100279;1279;96662;-70
2022/12/05 21:06:41;;;;;;;43.40;27.30;;;;;;;1.33;85.79;100466.88;100021;1279;108045;-68
2022/12/05 21:09:14;;;;;;;44.20;28.30;;;;;;;1.34;85.73;100467.40;100257;1287;96486;-67
2022/12/05 21:11:41;;;;;;;44.40;27.20;;;;;;;1.35;85.54;100459.18;100235;1285;110732;-68
2022/12/05 21:14:09;;;;;;;45.50;28.20;;;;;;;1.36;85.63;100467.07;99932;1285;138103;-68
2022/12/05 21:16:36;;;;;;;44.30;26.80;;;;;;;1.36;85.33;100463.13;100173;1294;97323;-68
2022/12/05 21:19:03;;;;;;;47.50;27.30;;;;;;;1.35;85.46;100465.02;100090;1282;138130;-68
2022/12/05 21:21:32;;;;;;;41.90;26.70;;;;;;;1.35;85.46;100459.52;100213;1282;96453;-68
2022/12/05 21:24:01;;;;;;;42.40;26.90;;;;;;;1.35;85.55;100461.05;100273;1281;110137;-68
2022/12/05 21:26:32;;;;;;;43.10;27.40;;;;;;;1.35;85.45;100457.48;100618;1288;138856;-68
2022/12/05 21:29:02;;;;;;;43.20;27.20;;;;;;;1.35;85.55;100457.46;101347;1288;94590;-68
2022/12/05 21:31:32;;;;;;;43.20;27.00;;;;;;;1.37;85.38;100458.85;100073;1287;139507;-68
2022/12/05 21:34:01;;;;;;;46.60;28.40;;;;;;;1.39;85.54;100456.64;100493;1287;96495;-68
2022/12/05 21:36:31;;;;;;;46.10;28.40;;;;;;;1.40;85.58;100457.67;100783;1282;110046;-68
2022/12/05 21:38:58;;;;;;;41.50;26.10;;;;;;;1.40;85.49;100455.27;101063;1288;138187;-68
2022/12/05 21:41:26;;;;;;;41.40;27.60;;;;;;;1.41;85.38;100457.85;100299;1290;96475;-68
2022/12/05 21:43:54;;;;;;;43.60;27.30;;;;;;;1.40;85.41;100447.23;101299;1295;137912;-68
2022/12/05 21:46:22;;;;;;;44.20;28.70;;;;;;;1.40;85.42;100439.85;100215;1289;96597;-68
2022/12/05 21:48:50;;;;;;;42.20;27.30;;;;;;;1.41;85.52;100444.48;100775;1288;138229;-67
2022/12/05 21:51:17;;;;;;;46.60;29.10;;;;;;;1.41;85.49;100444.32;100210;1290;107747;-68
2022/12/05 21:53:44;;;;;;;49.70;29.80;;;;;;;1.41;85.45;100440.21;100326;1288;97212;-68
2022/12/05 21:56:14;;;;;;;48.10;29.60;;;;;;;1.42;85.32;100438.84;100154;1282;139779;-68
2022/12/05 21:58:42;;;;;;;43.60;27.80;;;;;;;1.42;85.40;100436.27;101028;1288;94458;-68
2022/12/05 22:01:10;;;;;;;44.00;29.20;;;;;;;1.42;85.34;100436.10;100089;1288;138826;-67
2022/12/05 22:03:38;;;;;;;44.90;28.40;;;;;;;1.42;85.30;100438.15;100248;1288;107480;-69
2022/12/05 22:06:07;;;;;;;44.10;28.00;;;;;;;1.40;85.43;100442.77;100258;1289;98156;-68
2022/12/05 22:08:36;;;;;;;49.30;29.30;;;;;;;1.38;85.55;100440.18;101585;1289;138145;-69
2022/12/05 22:11:09;;;;;;;43.30;29.20;;;;;;;1.38;85.42;100440.02;100695;1288;96502;-68
2022/12/05 22:13:37;;;;;;;43.30;28.40;;;;;;;1.38;85.56;100442.24;100181;1295;138963;-68
2022/12/05 22:16:07;;;;;;;47.00;29.10;;;;;;;1.37;85.35;100435.55;100079;1282;106990;-68
2022/12/05 22:18:35;;;;;;;50.90;30.30;;;;;;;1.37;85.50;100428.18;101628;1288;94435;-69
2022/12/05 22:21:04;;;;;;;44.70;29.40;;;;;;;1.37;85.70;100430.07;100594;1280;138091;-69
2022/12/05 22:23:31;;;;;;;45.60;27.40;;;;;;;1.36;85.48;100429.72;100230;1288;96500;-68
2022/12/05 22:26:00;;;;;;;45.40;27.20;;;;;;;1.36;85.48;100433.49;100200;1288;139870;-68
2022/12/05 22:28:29;;;;;;;46.00;28.30;;;;;;;1.35;85.62;100425.27;101429;1295;107323;-69
2022/12/05 22:30:57;;;;;;;44.50;27.80;;;;;;;1.37;85.74;100419.61;100165;1281;140269;-68
2022/12/05 22:33:26;;;;;;;44.80;28.00;;;;;;;1.38;85.65;100415.86;100198;1288;107715;-69
2022/12/05 22:35:55;;;;;;;46.10;28.30;;;;;;;1.39;85.48;100414.15;100238;1282;96471;-68
2022/12/05 22:38:23;;;;;;;46.80;29.70;;;;;;;1.39;85.58;100410.39;101069;1287;137956;-68
2022/12/05 22:40:56;;;;;;;48.10;30.10;;;;;;;1.39;85.51;100399.42;101513;1288;108283;-69
2022/12/05 22:43:25;;;;;;;47.90;30.20;;;;;;;1.37;85.58;100395.46;100181;1288;138163;-69
2022/12/05 22:45:52;;;;;;;48.40;28.80;;;;;;;1.36;85.53;100402.48;100140;1282;108829;-69
2022/12/05 22:48:20;;;;;;;44.80;27.90;;;;;;;1.34;85.49;100389.62;100260;1288;96571;-68
2022/12/05 22:50:52;;;;;;;46.40;28.10;;;;;;;1.34;85.62;100391.16;101560;1281;138764;-69
2022/12/05 22:53:20;;;;;;;47.90;28.90;;;;;;;1.35;85.60;100385.34;101199;1288;107971;-68
2022/12/05 22:55:47;;;;;;;43.70;28.30;;;;;;;1.36;85.71;100387.59;100170;1288;138158;-69
2022/12/05 22:58:15;;;;;;;43.00;26.80;;;;;;;1.36;85.74;100392.37;100295;1281;108076;-68
2022/12/05 23:00:42;;;;;;;49.60;28.30;;;;;;;1.35;85.64;100385.52;100235;1288;96556;-68
2022/12/05 23:03:11;;;;;;;46.60;28.50;;;;;;;1.34;85.65;100381.05;99994;1280;110710;-67
2022/12/05 23:05:43;;;;;;;46.40;28.10;;;;;;;1.35;85.72;100386.20;100490;1285;107271;-68
2022/12/05 23:08:11;;;;;;;39.80;27.00;;;;;;;1.34;85.67;100393.73;100102;1289;138299;-68
2022/12/05 23:10:39;;;;;;;41.90;26.00;;;;;;;1.33;85.69;100390.64;99303;1289;1002500;-68
2022/12/05 23:13:06;;;;;;;43.10;28.20;;;;;;;1.33;85.65;100386.02;100234;1282;138280;-68
2022/12/05 23:15:34;;;;;;;47.40;28.30;;;;;;;1.32;85.86;100386.52;100209;1279;111740;-67
2022/12/05 23:18:02;;;;;;;43.40;27.60;;;;;;;1.31;85.72;100382.40;100423;1288;107691;-68
2022/12/05 23:20:29;;;;;;;44.20;27.20;;;;;;;1.31;85.78;100387.20;101586;1288;138749;-68
2022/12/05 23:22:57;;;;;;;44.20;28.40;;;;;;;1.32;85.83;100387.39;101672;1296;107102;-68
2022/12/05 23:25:24;;;;;;;44.60;27.90;;;;;;;1.33;85.84;100382.77;101233;1288;138393;-67
2022/12/05 23:27:52;;;;;;;42.60;27.00;;;;;;;1.34;85.80;100384.83;100399;1278;109741;-67
2022/12/05 23:30:20;;;;;;;44.50;27.20;;;;;;;1.35;85.84;100385.86;100313;1286;107561;-68
2022/12/05 23:32:48;;;;;;;45.20;28.00;;;;;;;1.33;85.67;100388.76;101613;1295;139430;-68
2022/12/05 23:35:15;;;;;;;45.90;27.60;;;;;;;1.32;85.86;100386.86;101679;1289;108343;-68
2022/12/05 23:37:42;;;;;;;46.30;28.10;;;;;;;1.29;85.82;100387.38;101621;1286;138596;-68
2022/12/05 23:40:10;;;;;;;44.80;26.70;;;;;;;1.27;85.95;100373.81;101765;1288;109944;-68
2022/12/05 23:42:38;;;;;;;46.10;27.90;;;;;;;1.27;85.99;100372.63;101699;1282;106493;-68
2022/12/05 23:45:07;;;;;;;47.10;26.10;;;;;;;1.29;86.13;100372.46;101617;1289;138088;-68
2022/12/05 23:47:34;;;;;;;43.40;27.00;;;;;;;1.31;86.05;100364.42;101737;1288;108106;-68
2022/12/05 23:50:02;;;;;;;42.40;26.90;;;;;;;1.33;86.06;100366.83;101587;1296;138439;-68
2022/12/05 23:52:30;;;;;;;43.60;26.80;;;;;;;1.35;86.12;100376.61;100576;1286;109084;-68
2022/12/05 23:54:57;;;;;;;43.20;27.20;;;;;;;1.34;86.07;100368.38;100362;1286;138118;-67
2022/12/05 23:57:25;;;;;;;43.90;28.60;;;;;;;1.34;86.15;100358.95;101193;1286;96547;-68
2022/12/05 23:59:53;;;;;;;51.40;28.60;;;;;;;1.36;86.43;100364.45;101487;1285;107554;-67
